createdAt,value
2023-10-04T00:00:51.235Z,14.55
2023-10-04T00:03:17.890Z,14.61
2023-10-04T00:05:44.474Z,14.62
2023-10-04T00:08:11.221Z,14.63
2023-10-04T00:10:37.706Z,14.70
2023-10-04T00:13:04.485Z,14.76
2023-10-04T00:15:31.058Z,14.67
2023-10-04T00:17:57.740Z,14.76
2023-10-04T00:20:24.991Z,14.74
2023-10-04T00:22:51.777Z,14.78
2023-10-04T00:25:19.373Z,14.77
2023-10-04T00:27:45.816Z,14.73
2023-10-04T00:30:13.624Z,14.75
2023-10-04T00:32:40.303Z,14.77
2023-10-04T00:35:07.688Z,14.65
2023-10-04T00:37:34.301Z,14.74
2023-10-04T00:40:00.768Z,14.72
2023-10-04T00:42:27.318Z,14.77
2023-10-04T00:44:54.193Z,14.77
2023-10-04T00:47:21.026Z,14.74
2023-10-04T00:49:47.686Z,14.70
2023-10-04T00:52:14.746Z,14.68
2023-10-04T00:54:42.677Z,14.64
2023-10-04T00:57:09.659Z,14.61
2023-10-04T00:59:36.330Z,14.57
2023-10-04T01:02:03.101Z,14.53
2023-10-04T01:04:29.661Z,14.50
2023-10-04T01:06:56.360Z,14.44
2023-10-04T01:09:23.402Z,14.44
2023-10-04T01:11:50.120Z,14.39
2023-10-04T01:14:16.651Z,14.36
2023-10-04T01:16:43.321Z,14.33
2023-10-04T01:19:10.049Z,14.31
2023-10-04T01:21:36.716Z,14.30
2023-10-04T01:24:03.487Z,14.24
2023-10-04T01:26:29.933Z,14.21
2023-10-04T01:28:56.406Z,14.24
2023-10-04T01:31:23.089Z,14.22
2023-10-04T01:33:49.817Z,14.21
2023-10-04T01:36:16.378Z,14.18
2023-10-04T01:38:42.828Z,14.20
2023-10-04T01:41:09.314Z,14.20
2023-10-04T01:43:35.845Z,14.19
2023-10-04T01:46:02.387Z,14.17
2023-10-04T01:48:30.391Z,14.17
2023-10-04T01:50:56.873Z,14.16
2023-10-04T01:53:25.243Z,14.14
2023-10-04T01:55:51.831Z,14.19
2023-10-04T01:58:18.765Z,14.12
2023-10-04T02:00:45.562Z,14.15
2023-10-04T02:03:12.125Z,14.19
2023-10-04T02:05:38.966Z,14.18
2023-10-04T02:08:05.797Z,14.21
2023-10-04T02:10:32.318Z,14.17
2023-10-04T02:12:58.738Z,14.14
2023-10-04T02:15:25.408Z,14.15
2023-10-04T02:17:52.087Z,14.16
2023-10-04T02:20:19.081Z,14.13
2023-10-04T02:22:45.443Z,14.14
2023-10-04T02:25:12.020Z,14.12
2023-10-04T02:27:38.534Z,14.08
2023-10-04T02:30:05.583Z,14.13
2023-10-04T02:32:32.097Z,14.13
2023-10-04T02:34:58.676Z,14.15
2023-10-04T02:37:25.150Z,14.14
2023-10-04T02:39:51.872Z,14.13
2023-10-04T02:42:18.379Z,14.15
2023-10-04T02:44:44.884Z,14.12
2023-10-04T02:47:11.395Z,14.12
2023-10-04T02:49:38.149Z,14.10
2023-10-04T02:52:06.047Z,14.03
2023-10-04T02:54:33.588Z,14.06
2023-10-04T02:57:01.534Z,14.09
2023-10-04T02:59:27.980Z,14.11
2023-10-04T03:01:54.566Z,14.03
2023-10-04T03:04:21.176Z,14.01
2023-10-04T03:06:47.805Z,14.03
2023-10-04T03:09:14.293Z,14.01
2023-10-04T03:11:40.884Z,14.02
2023-10-04T03:14:07.354Z,14.02
2023-10-04T03:16:34.547Z,14.03
2023-10-04T03:19:01.808Z,13.99
2023-10-04T03:21:28.508Z,14.00
2023-10-04T03:23:55.009Z,13.93
2023-10-04T03:26:21.515Z,13.97
2023-10-04T03:28:47.977Z,14.01
2023-10-04T03:31:16.378Z,13.98
2023-10-04T03:33:43.252Z,13.92
2023-10-04T03:36:09.765Z,13.96
2023-10-04T03:38:36.496Z,13.96
2023-10-04T03:41:04.008Z,13.94
2023-10-04T03:43:31.274Z,13.93
2023-10-04T03:45:58.388Z,13.94
2023-10-04T03:48:24.966Z,13.91
2023-10-04T03:50:52.843Z,13.83
2023-10-04T03:53:20.412Z,13.82
2023-10-04T03:55:47.185Z,13.82
2023-10-04T03:58:14.778Z,13.82
2023-10-04T04:00:41.452Z,13.84
2023-10-04T04:03:08.906Z,13.83
2023-10-04T04:05:35.733Z,13.85
2023-10-04T04:08:02.194Z,13.83
2023-10-04T04:10:28.714Z,13.79
2023-10-04T04:12:55.236Z,13.83
2023-10-04T04:15:21.818Z,13.87
2023-10-04T04:17:48.398Z,13.87
2023-10-04T04:20:15.031Z,13.88
2023-10-04T04:22:45.753Z,13.88
2023-10-04T04:25:12.287Z,13.83
2023-10-04T04:27:38.860Z,13.90
2023-10-04T04:30:05.844Z,13.86
2023-10-04T04:32:32.492Z,13.87
2023-10-04T04:34:58.987Z,13.90
2023-10-04T04:37:25.439Z,13.90
2023-10-04T04:39:52.188Z,13.89
2023-10-04T04:42:18.654Z,13.87
2023-10-04T04:44:45.292Z,13.82
2023-10-04T04:47:11.840Z,13.79
2023-10-04T04:49:38.305Z,13.84
2023-10-04T04:52:05.006Z,13.79
2023-10-04T04:54:31.513Z,13.77
2023-10-04T04:56:58.045Z,13.74
2023-10-04T04:59:27.502Z,13.72
2023-10-04T05:01:53.970Z,13.64
2023-10-04T05:04:20.455Z,13.67
2023-10-04T05:06:47.137Z,13.66
2023-10-04T05:09:13.783Z,13.60
2023-10-04T05:11:42.621Z,13.58
2023-10-04T05:14:09.252Z,13.62
2023-10-04T05:16:36.142Z,13.59
2023-10-04T05:19:02.992Z,13.59
2023-10-04T05:21:31.674Z,13.60
2023-10-04T05:24:01.437Z,13.61
2023-10-04T05:26:35.620Z,13.59
2023-10-04T05:29:02.666Z,13.61
2023-10-04T05:31:29.380Z,13.60
2023-10-04T05:33:56.084Z,13.56
2023-10-04T05:36:22.805Z,13.56
2023-10-04T05:38:49.601Z,13.57
2023-10-04T05:41:19.310Z,13.58
2023-10-04T05:43:45.952Z,13.59
2023-10-04T05:46:12.465Z,13.60
2023-10-04T05:48:41.643Z,13.63
2023-10-04T05:51:08.801Z,13.65
2023-10-04T05:53:35.513Z,13.66
2023-10-04T05:56:02.050Z,13.64
2023-10-04T05:58:28.635Z,13.58
2023-10-04T06:00:55.376Z,13.60
2023-10-04T06:03:22.071Z,13.60
2023-10-04T06:05:57.727Z,13.59
2023-10-04T06:08:24.363Z,13.63
2023-10-04T06:10:53.200Z,13.60
2023-10-04T06:13:20.587Z,13.60
2023-10-04T06:15:51.853Z,13.66
2023-10-04T06:18:18.726Z,13.63
2023-10-04T06:20:45.464Z,13.65
2023-10-04T06:23:14.095Z,13.71
2023-10-04T06:25:42.520Z,13.68
2023-10-04T06:28:09.298Z,13.82
2023-10-04T06:30:35.908Z,13.77
2023-10-04T06:33:05.519Z,13.76
2023-10-04T06:35:32.896Z,13.79
2023-10-04T06:38:01.440Z,13.81
2023-10-04T06:40:29.064Z,13.84
2023-10-04T06:42:55.744Z,13.86
2023-10-04T06:45:23.586Z,13.88
2023-10-04T06:47:50.739Z,13.93
2023-10-04T06:50:21.438Z,13.97
2023-10-04T06:52:49.135Z,13.98
2023-10-04T06:55:17.626Z,14.04
2023-10-04T06:57:44.534Z,14.02
2023-10-04T07:00:12.918Z,14.11
2023-10-04T07:02:40.398Z,14.16
2023-10-04T07:05:07.507Z,14.21
2023-10-04T07:07:34.181Z,14.14
2023-10-04T07:10:00.746Z,14.25
2023-10-04T07:12:27.440Z,14.24
2023-10-04T07:14:54.267Z,14.39
2023-10-04T07:17:20.680Z,14.51
2023-10-04T07:19:47.181Z,14.42
2023-10-04T07:22:13.724Z,14.62
2023-10-04T07:24:40.330Z,14.80
2023-10-04T07:27:06.873Z,14.77
2023-10-04T07:29:33.369Z,14.94
2023-10-04T07:31:59.898Z,15.05
2023-10-04T07:34:26.570Z,15.21
2023-10-04T07:36:53.034Z,15.36
2023-10-04T07:39:19.584Z,15.42
2023-10-04T07:41:46.142Z,15.53
2023-10-04T07:44:12.677Z,15.54
2023-10-04T07:46:39.320Z,15.65
2023-10-04T07:49:06.197Z,15.79
2023-10-04T07:51:32.710Z,15.83
2023-10-04T07:53:59.295Z,16.00
2023-10-04T07:56:27.727Z,16.06
2023-10-04T07:58:54.330Z,16.13
2023-10-04T08:01:20.828Z,16.23
2023-10-04T08:03:47.676Z,16.30
2023-10-04T08:06:14.374Z,16.50
2023-10-04T08:08:41.200Z,16.61
2023-10-04T08:11:11.879Z,16.69
2023-10-04T08:13:39.058Z,16.91
2023-10-04T08:16:06.454Z,17.05
2023-10-04T08:18:33.154Z,17.16
2023-10-04T08:21:05.234Z,17.34
2023-10-04T08:23:31.809Z,17.55
2023-10-04T08:25:58.558Z,17.69
2023-10-04T08:28:25.146Z,17.86
2023-10-04T08:30:51.874Z,18.21
2023-10-04T08:33:19.935Z,18.21
2023-10-04T08:35:46.772Z,18.49
2023-10-04T08:38:13.694Z,18.61
2023-10-04T08:40:40.427Z,18.71
2023-10-04T08:43:07.550Z,18.79
2023-10-04T08:45:34.189Z,18.89
2023-10-04T08:48:01.677Z,18.92
2023-10-04T08:50:32.199Z,19.03
2023-10-04T08:53:39.829Z,19.13
2023-10-04T08:56:09.904Z,19.20
2023-10-04T08:58:37.379Z,19.18
2023-10-04T09:01:07.811Z,19.36
2023-10-04T09:03:35.996Z,19.44
2023-10-04T09:06:03.663Z,19.56
2023-10-04T09:08:30.441Z,19.88
2023-10-04T09:10:57.469Z,19.95
2023-10-04T09:13:24.192Z,20.10
2023-10-04T09:15:59.887Z,20.29
2023-10-04T09:18:28.017Z,20.50
2023-10-04T09:20:54.907Z,20.75
2023-10-04T09:23:21.518Z,20.68
2023-10-04T09:25:48.257Z,20.65
2023-10-04T09:28:15.498Z,20.61
2023-10-04T09:30:42.335Z,20.73
2023-10-04T09:33:23.776Z,20.65
2023-10-04T09:35:50.517Z,20.70
2023-10-04T09:38:22.134Z,20.67
2023-10-04T09:40:58.361Z,20.64
2023-10-04T09:43:40.430Z,20.47
2023-10-04T09:46:08.949Z,20.56
2023-10-04T09:48:36.561Z,20.53
2023-10-04T09:51:05.077Z,20.39
2023-10-04T09:53:32.158Z,20.28
2023-10-04T09:56:03.845Z,20.17
2023-10-04T09:58:32.510Z,20.20
2023-10-04T10:01:09.945Z,20.19
2023-10-04T10:03:44.584Z,20.23
2023-10-04T10:06:15.961Z,20.16
2023-10-04T10:08:47.284Z,20.27
2023-10-04T10:11:14.027Z,20.25
2023-10-04T10:13:41.860Z,20.25
2023-10-04T10:16:08.735Z,20.32
2023-10-04T10:18:36.109Z,20.22
2023-10-04T10:21:02.868Z,20.14
2023-10-04T10:23:29.358Z,20.23
2023-10-04T10:26:20.931Z,20.19
2023-10-04T10:28:48.763Z,20.08
2023-10-04T10:31:20.206Z,20.09
2023-10-04T10:33:47.253Z,20.19
2023-10-04T10:36:21.706Z,20.22
2023-10-04T10:38:48.878Z,20.29
2023-10-04T10:41:35.773Z,20.48
2023-10-04T10:44:17.630Z,20.37
2023-10-04T10:46:59.935Z,20.29
2023-10-04T10:49:39.463Z,20.24
2023-10-04T10:52:20.883Z,20.19
2023-10-04T10:54:48.205Z,20.28
2023-10-04T10:57:14.852Z,20.33
2023-10-04T10:59:41.466Z,20.32
2023-10-04T11:02:08.042Z,20.23
2023-10-04T11:04:34.482Z,20.06
2023-10-04T11:07:04.153Z,20.01
2023-10-04T11:09:42.861Z,19.98
2023-10-04T11:12:11.489Z,19.95
2023-10-04T11:14:38.017Z,19.88
2023-10-04T11:17:05.491Z,19.85
2023-10-04T11:19:37.432Z,19.86
2023-10-04T11:22:07.804Z,19.84
2023-10-04T11:24:36.826Z,19.88
2023-10-04T11:27:04.853Z,19.99
2023-10-04T11:29:32.621Z,20.06
2023-10-04T11:32:01.751Z,20.05
2023-10-04T11:34:29.386Z,20.05
2023-10-04T11:37:00.236Z,20.02
2023-10-04T11:39:30.546Z,19.97
2023-10-04T11:41:57.039Z,19.98
2023-10-04T11:44:24.024Z,19.90
2023-10-04T11:46:59.094Z,19.96
2023-10-04T11:49:26.329Z,20.01
2023-10-04T11:51:53.082Z,20.09
2023-10-04T11:54:20.035Z,20.09
2023-10-04T11:56:47.124Z,20.22
2023-10-04T11:59:13.745Z,20.25
2023-10-04T12:01:49.938Z,20.24
2023-10-04T12:04:16.839Z,20.39
2023-10-04T12:06:43.470Z,20.51
2023-10-04T12:09:10.056Z,20.34
2023-10-04T12:11:36.946Z,20.33
2023-10-04T12:14:04.868Z,20.31
2023-10-04T12:16:33.633Z,20.31
2023-10-04T12:19:03.325Z,20.44
2023-10-04T12:21:30.278Z,20.50
2023-10-04T12:23:56.995Z,20.57
2023-10-04T12:26:29.433Z,20.47
2023-10-04T12:28:55.853Z,20.35
2023-10-04T12:31:22.434Z,20.27
2023-10-04T12:33:48.987Z,20.26
2023-10-04T12:36:15.496Z,20.22
2023-10-04T12:38:42.183Z,20.11
2023-10-04T12:41:08.647Z,19.95
2023-10-04T12:43:35.502Z,19.87
2023-10-04T12:46:02.310Z,19.88
2023-10-04T12:48:29.308Z,19.93
2023-10-04T12:50:55.887Z,19.90
2023-10-04T12:53:22.590Z,19.95
2023-10-04T12:55:49.692Z,20.10
2023-10-04T12:58:16.202Z,20.14
2023-10-04T13:00:42.953Z,20.17
2023-10-04T13:03:09.876Z,20.16
2023-10-04T13:05:36.659Z,20.10
2023-10-04T13:08:03.277Z,19.93
2023-10-04T13:10:32.916Z,19.83
2023-10-04T13:12:59.525Z,19.87
2023-10-04T13:15:26.239Z,19.99
2023-10-04T13:17:52.808Z,20.11
2023-10-04T13:20:19.390Z,20.06
2023-10-04T13:22:46.489Z,20.09
2023-10-04T13:25:13.133Z,20.10
2023-10-04T13:27:39.797Z,20.15
2023-10-04T13:30:06.956Z,20.10
2023-10-04T13:32:33.765Z,20.12
2023-10-04T13:35:00.727Z,20.03
2023-10-04T13:37:27.290Z,19.97
2023-10-04T13:39:53.819Z,19.97
2023-10-04T13:42:28.665Z,19.97
2023-10-04T13:44:55.898Z,19.92
2023-10-04T13:47:22.386Z,19.92
2023-10-04T13:49:48.786Z,19.95
2023-10-04T13:52:15.299Z,19.84
2023-10-04T13:54:41.899Z,19.82
2023-10-04T13:57:08.376Z,19.72
2023-10-04T13:59:34.865Z,19.67
2023-10-04T14:02:02.055Z,19.74
2023-10-04T14:04:29.230Z,19.82
2023-10-04T14:06:55.784Z,19.77
2023-10-04T14:09:22.269Z,19.73
2023-10-04T14:11:49.735Z,19.75
2023-10-04T14:14:16.405Z,19.82
2023-10-04T14:16:43.228Z,19.80
2023-10-04T14:19:12.339Z,19.83
2023-10-04T14:21:39.337Z,19.71
2023-10-04T14:24:06.586Z,19.72
2023-10-04T14:26:34.136Z,19.72
2023-10-04T14:29:01.112Z,19.74
2023-10-04T14:31:28.625Z,19.78
2023-10-04T14:33:55.293Z,19.82
2023-10-04T14:36:22.569Z,19.78
2023-10-04T14:38:50.430Z,19.79
2023-10-04T14:41:16.966Z,19.72
2023-10-04T14:43:43.496Z,19.58
2023-10-04T14:46:10.269Z,19.45
2023-10-04T14:48:36.835Z,19.52
2023-10-04T14:53:32.810Z,19.51
2023-10-04T14:56:03.196Z,19.49
2023-10-04T14:58:31.870Z,19.48
2023-10-04T15:00:58.567Z,19.40
2023-10-04T15:03:25.361Z,19.42
2023-10-04T15:05:52.127Z,19.45
2023-10-04T15:08:18.682Z,19.38
2023-10-04T15:10:45.527Z,19.47
2023-10-04T15:13:12.147Z,19.51
2023-10-04T15:15:38.755Z,19.59
2023-10-04T15:18:06.508Z,19.65
2023-10-04T15:20:33.094Z,19.65
2023-10-04T15:23:00.648Z,19.62
2023-10-04T15:25:27.306Z,19.68
2023-10-04T15:27:53.841Z,19.70
2023-10-04T15:30:20.637Z,19.70
2023-10-04T15:32:53.052Z,19.67
2023-10-04T15:35:20.718Z,19.53
2023-10-04T15:37:47.472Z,19.57
2023-10-04T15:40:14.028Z,19.45
2023-10-04T15:42:43.917Z,19.51
2023-10-04T15:45:12.197Z,19.36
2023-10-04T15:47:38.877Z,19.34
2023-10-04T15:50:06.432Z,19.35
2023-10-04T15:52:32.879Z,19.35
2023-10-04T15:54:59.361Z,19.27
2023-10-04T15:57:25.851Z,19.24
2023-10-04T15:59:52.566Z,19.15
2023-10-04T16:02:19.010Z,19.15
2023-10-04T16:04:45.609Z,19.12
2023-10-04T16:07:12.215Z,19.00
2023-10-04T16:09:38.693Z,19.01
2023-10-04T16:12:05.588Z,19.01
2023-10-04T16:14:32.133Z,18.98
2023-10-04T16:17:00.859Z,18.97
2023-10-04T16:19:27.612Z,18.93
2023-10-04T16:21:54.026Z,18.94
2023-10-04T16:24:20.515Z,18.90
2023-10-04T16:26:47.129Z,18.89
2023-10-04T16:29:13.634Z,18.86
2023-10-04T16:31:40.200Z,18.76
2023-10-04T16:34:06.937Z,18.71
2023-10-04T16:36:33.694Z,18.66
2023-10-04T16:39:00.388Z,18.63
2023-10-04T16:41:26.856Z,18.65
2023-10-04T16:43:53.305Z,18.58
2023-10-04T16:46:19.940Z,18.51
2023-10-04T16:48:46.749Z,18.50
2023-10-04T16:51:13.243Z,18.45
2023-10-04T16:53:39.837Z,18.45
2023-10-04T16:56:10.982Z,18.40
2023-10-04T16:58:37.498Z,18.34
2023-10-04T17:01:04.098Z,18.26
2023-10-04T17:03:30.688Z,18.19
2023-10-04T17:05:57.211Z,18.14
2023-10-04T17:08:23.709Z,18.11
2023-10-04T17:10:50.410Z,18.02
2023-10-04T17:13:17.119Z,18.00
2023-10-04T17:15:43.810Z,17.97
2023-10-04T17:18:10.387Z,17.96
2023-10-04T17:20:36.936Z,17.93
2023-10-04T17:23:03.693Z,17.95
2023-10-04T17:25:30.282Z,17.94
2023-10-04T17:27:56.958Z,17.95
2023-10-04T17:30:23.495Z,17.93
2023-10-04T17:32:50.113Z,17.95
2023-10-04T17:35:16.962Z,17.93
2023-10-04T17:37:43.525Z,17.90
2023-10-04T17:40:10.416Z,17.87
2023-10-04T17:42:37.492Z,17.81
2023-10-04T17:45:04.433Z,17.77
2023-10-04T17:47:31.037Z,17.77
2023-10-04T17:49:57.623Z,17.77
2023-10-04T17:52:24.105Z,17.77
2023-10-04T17:54:50.721Z,17.74
2023-10-04T17:57:17.233Z,17.76
2023-10-04T17:59:43.710Z,17.66
2023-10-04T18:02:10.370Z,17.67
2023-10-04T18:04:37.025Z,17.66
2023-10-04T18:07:03.574Z,17.70
2023-10-04T18:09:30.160Z,17.65
2023-10-04T18:11:56.686Z,17.59
2023-10-04T18:14:23.210Z,17.57
2023-10-04T18:16:49.754Z,17.55
2023-10-04T18:19:16.663Z,17.54
2023-10-04T18:21:43.255Z,17.51
2023-10-04T18:24:09.846Z,17.50
2023-10-04T18:26:36.650Z,17.45
2023-10-04T18:29:03.351Z,17.38
2023-10-04T18:31:29.957Z,17.34
2023-10-04T18:33:56.755Z,17.28
2023-10-04T18:36:24.175Z,17.24
2023-10-04T18:38:50.737Z,17.17
2023-10-04T18:41:18.246Z,17.20
2023-10-04T18:43:44.796Z,17.16
2023-10-04T18:46:13.140Z,17.12
2023-10-04T18:48:40.055Z,17.10
2023-10-04T18:51:06.710Z,17.05
2023-10-04T18:53:33.341Z,17.08
2023-10-04T18:55:59.849Z,17.04
2023-10-04T18:58:26.416Z,17.02
2023-10-04T19:00:52.969Z,16.99
2023-10-04T19:03:19.567Z,16.89
2023-10-04T19:05:46.195Z,16.88
2023-10-04T19:08:12.707Z,16.89
2023-10-04T19:10:39.227Z,16.78
2023-10-04T19:13:05.894Z,16.78
2023-10-04T19:15:33.014Z,16.77
2023-10-04T19:18:00.783Z,16.73
2023-10-04T19:20:27.779Z,16.71
2023-10-04T19:22:54.233Z,16.65
2023-10-04T19:25:21.124Z,16.63
2023-10-04T19:27:47.909Z,16.62
2023-10-04T19:30:15.003Z,16.53
2023-10-04T19:32:42.006Z,16.56
2023-10-04T19:35:09.217Z,16.44
2023-10-04T19:37:35.832Z,16.42
2023-10-04T19:40:03.356Z,16.35
2023-10-04T19:42:30.293Z,16.34
2023-10-04T19:44:56.864Z,16.34
2023-10-04T19:47:23.452Z,16.30
2023-10-04T19:49:49.957Z,16.25
2023-10-04T19:52:16.441Z,16.22
2023-10-04T19:54:42.988Z,16.19
2023-10-04T19:57:09.533Z,16.15
2023-10-04T19:59:36.259Z,16.14
2023-10-04T20:02:02.850Z,16.15
2023-10-04T20:04:29.409Z,16.14
2023-10-04T20:06:59.033Z,16.12
2023-10-04T20:09:25.609Z,16.12
2023-10-04T20:11:52.967Z,16.05
2023-10-04T20:14:19.839Z,16.03
2023-10-04T20:16:55.659Z,16.07
2023-10-04T20:19:22.179Z,16.04
2023-10-04T20:21:48.775Z,16.03
2023-10-04T20:24:15.253Z,15.99
2023-10-04T20:26:41.796Z,16.02
2023-10-04T20:29:08.398Z,15.95
2023-10-04T20:31:35.099Z,15.98
2023-10-04T20:34:01.710Z,15.98
2023-10-04T20:36:32.631Z,16.03
2023-10-04T20:38:59.264Z,16.02
2023-10-04T20:41:25.793Z,16.07
2023-10-04T20:43:52.456Z,16.07
2023-10-04T20:46:19.105Z,16.08
2023-10-04T20:48:45.735Z,16.07
2023-10-04T20:51:12.406Z,16.09
2023-10-04T20:53:38.931Z,16.07
2023-10-04T20:56:05.501Z,16.06
2023-10-04T20:58:31.986Z,16.05
2023-10-04T21:01:02.620Z,16.02
2023-10-04T21:03:29.283Z,16.03
2023-10-04T21:05:55.882Z,15.99
2023-10-04T21:08:22.519Z,15.99
2023-10-04T21:10:48.962Z,15.93
2023-10-04T21:13:15.719Z,15.98
2023-10-04T21:15:42.311Z,15.94
2023-10-04T21:18:08.901Z,15.95
2023-10-04T21:20:35.516Z,15.94
2023-10-04T21:23:02.113Z,15.93
2023-10-04T21:25:28.686Z,15.87
2023-10-04T21:27:55.377Z,15.90
2023-10-04T21:30:22.032Z,15.86
2023-10-04T21:32:48.683Z,15.87
2023-10-04T21:35:15.370Z,15.89
2023-10-04T21:37:42.577Z,15.94
2023-10-04T21:40:10.376Z,15.91
2023-10-04T21:42:36.892Z,15.87
2023-10-04T21:45:03.804Z,15.92
2023-10-04T21:47:30.324Z,15.89
2023-10-04T21:49:57.178Z,15.88
2023-10-04T21:52:23.927Z,15.94
2023-10-04T21:54:50.577Z,15.89
2023-10-04T21:57:17.093Z,15.98
2023-10-04T21:59:43.708Z,15.99
2023-10-04T22:02:10.332Z,16.04
2023-10-04T22:04:37.038Z,16.04
2023-10-04T22:07:20.469Z,16.07
2023-10-04T22:09:48.604Z,16.08
2023-10-04T22:12:15.687Z,15.97
2023-10-04T22:14:42.181Z,16.05
2023-10-04T22:17:08.700Z,16.14
2023-10-04T22:19:35.301Z,16.09
2023-10-04T22:22:01.950Z,16.17
2023-10-04T22:24:28.840Z,16.12
2023-10-04T22:26:55.441Z,16.12
2023-10-04T22:29:32.774Z,16.23
2023-10-04T22:32:00.632Z,16.22
2023-10-04T22:34:27.401Z,16.21
2023-10-04T22:36:54.003Z,16.20
2023-10-04T22:39:20.559Z,16.23
2023-10-04T22:41:47.091Z,16.19
2023-10-04T22:44:13.703Z,16.07
2023-10-04T22:46:40.305Z,16.13
2023-10-04T22:49:07.272Z,16.20
2023-10-04T22:51:34.262Z,16.12
2023-10-04T22:54:00.749Z,16.18
2023-10-04T22:56:27.306Z,16.17
2023-10-04T22:58:53.712Z,16.11
2023-10-04T23:01:20.378Z,16.12
2023-10-04T23:03:47.226Z,16.09
2023-10-04T23:06:13.935Z,16.09
2023-10-04T23:08:40.912Z,16.08
2023-10-04T23:11:07.649Z,16.07
2023-10-04T23:13:35.255Z,16.13
2023-10-04T23:16:02.310Z,16.12
2023-10-04T23:18:28.988Z,16.17
2023-10-04T23:20:55.541Z,16.13
2023-10-04T23:23:22.062Z,16.12
2023-10-04T23:25:48.562Z,16.08
2023-10-04T23:28:18.879Z,16.10
2023-10-04T23:30:47.367Z,16.19
2023-10-04T23:33:18.290Z,16.19
2023-10-04T23:35:50.264Z,16.21
2023-10-04T23:38:16.949Z,16.25
2023-10-04T23:40:44.918Z,16.16
2023-10-04T23:43:11.500Z,16.19
2023-10-04T23:45:38.198Z,16.23
2023-10-04T23:48:05.686Z,16.22
2023-10-04T23:50:32.293Z,16.27
2023-10-04T23:52:58.861Z,16.29
2023-10-04T23:55:25.924Z,16.25
2023-10-04T23:57:52.618Z,16.24
